sensor_id;sensor_type;location;lat;lon;timestamp;temperature;humidity
30336;DHT22;17142;47.990;7.846;2023-05-01T00:01:08;12.40;99.90
30336;DHT22;17142;47.990;7.846;2023-05-01T00:03:34;12.40;99.90
30336;DHT22;17142;47.990;7.846;2023-05-01T00:06:03;12.40;99.90
30336;DHT22;17142;47.990;7.846;2023-05-01T00:08:34;12.40;99.90
30336;DHT22;17142;47.990;7.846;2023-05-01T00:11:03;12.40;99.90
30336;DHT22;17142;47.990;7.846;2023-05-01T00:13:36;12.40;99.90
30336;DHT22;17142;47.990;7.846;2023-05-01T00:16:08;12.30;99.90
30336;DHT22;17142;47.990;7.846;2023-05-01T00:18:34;12.30;99.90
30336;DHT22;17142;47.990;7.846;2023-05-01T00:21:00;12.30;99.90
30336;DHT22;17142;47.990;7.846;2023-05-01T00:23:25;12.30;99.90
30336;DHT22;17142;47.990;7.846;2023-05-01T00:25:53;12.30;99.90
30336;DHT22;17142;47.990;7.846;2023-05-01T00:28:22;12.20;99.90
30336;DHT22;17142;47.990;7.846;2023-05-01T00:30:48;12.20;99.90
30336;DHT22;17142;47.990;7.846;2023-05-01T00:33:13;12.20;99.90
30336;DHT22;17142;47.990;7.846;2023-05-01T00:35:43;12.20;99.90
30336;DHT22;17142;47.990;7.846;2023-05-01T00:38:11;12.20;99.90
30336;DHT22;17142;47.990;7.846;2023-05-01T00:40:46;12.20;99.90
30336;DHT22;17142;47.990;7.846;2023-05-01T00:43:12;12.20;99.90
30336;DHT22;17142;47.990;7.846;2023-05-01T00:45:44;12.30;99.90
30336;DHT22;17142;47.990;7.846;2023-05-01T00:48:11;12.30;99.90
30336;DHT22;17142;47.990;7.846;2023-05-01T00:50:37;12.30;99.90
30336;DHT22;17142;47.990;7.846;2023-05-01T00:53:03;12.30;99.90
30336;DHT22;17142;47.990;7.846;2023-05-01T00:55:31;12.30;99.90
30336;DHT22;17142;47.990;7.846;2023-05-01T00:57:59;12.20;99.90
30336;DHT22;17142;47.990;7.846;2023-05-01T01:00:25;12.20;99.90
30336;DHT22;17142;47.990;7.846;2023-05-01T01:02:51;12.20;99.90
30336;DHT22;17142;47.990;7.846;2023-05-01T01:05:20;12.20;99.90
30336;DHT22;17142;47.990;7.846;2023-05-01T01:10:36;12.10;99.90
30336;DHT22;17142;47.990;7.846;2023-05-01T01:13:16;12.10;99.90
30336;DHT22;17142;47.990;7.846;2023-05-01T01:19:04;12.10;99.90
30336;DHT22;17142;47.990;7.846;2023-05-01T01:21:37;12.10;99.90
30336;DHT22;17142;47.990;7.846;2023-05-01T01:24:33;12.10;99.90
30336;DHT22;17142;47.990;7.846;2023-05-01T01:35:26;12.10;99.90
30336;DHT22;17142;47.990;7.846;2023-05-01T01:40:54;12.00;99.90
30336;DHT22;17142;47.990;7.846;2023-05-01T01:43:22;12.00;99.90
30336;DHT22;17142;47.990;7.846;2023-05-01T01:46:01;12.00;99.90
30336;DHT22;17142;47.990;7.846;2023-05-01T01:48:31;12.00;99.90
30336;DHT22;17142;47.990;7.846;2023-05-01T01:51:00;11.90;99.90
30336;DHT22;17142;47.990;7.846;2023-05-01T01:53:32;11.90;99.90
30336;DHT22;17142;47.990;7.846;2023-05-01T01:56:03;11.90;99.90
30336;DHT22;17142;47.990;7.846;2023-05-01T01:58:35;11.90;99.90
30336;DHT22;17142;47.990;7.846;2023-05-01T02:01:04;11.90;99.90
30336;DHT22;17142;47.990;7.846;2023-05-01T02:03:33;11.90;99.90
30336;DHT22;17142;47.990;7.846;2023-05-01T02:06:00;11.90;99.90
30336;DHT22;17142;47.990;7.846;2023-05-01T02:08:29;12.00;99.90
30336;DHT22;17142;47.990;7.846;2023-05-01T02:10:56;11.90;99.90
30336;DHT22;17142;47.990;7.846;2023-05-01T02:13:26;11.90;99.90
30336;DHT22;17142;47.990;7.846;2023-05-01T02:15:55;11.90;99.90
30336;DHT22;17142;47.990;7.846;2023-05-01T02:18:23;11.90;99.90
30336;DHT22;17142;47.990;7.846;2023-05-01T02:20:50;12.00;99.90
30336;DHT22;17142;47.990;7.846;2023-05-01T02:23:20;12.00;99.90
30336;DHT22;17142;47.990;7.846;2023-05-01T02:25:47;11.90;99.90
30336;DHT22;17142;47.990;7.846;2023-05-01T02:28:15;11.90;99.90
30336;DHT22;17142;47.990;7.846;2023-05-01T02:30:42;11.90;99.90
30336;DHT22;17142;47.990;7.846;2023-05-01T02:33:07;11.90;99.90
30336;DHT22;17142;47.990;7.846;2023-05-01T02:35:44;11.90;99.90
30336;DHT22;17142;47.990;7.846;2023-05-01T02:38:15;11.90;99.90
30336;DHT22;17142;47.990;7.846;2023-05-01T02:40:44;11.90;99.90
30336;DHT22;17142;47.990;7.846;2023-05-01T02:43:12;11.90;99.90
30336;DHT22;17142;47.990;7.846;2023-05-01T02:45:40;11.90;99.90
30336;DHT22;17142;47.990;7.846;2023-05-01T02:48:10;11.90;99.90
30336;DHT22;17142;47.990;7.846;2023-05-01T02:50:39;11.90;99.90
30336;DHT22;17142;47.990;7.846;2023-05-01T02:53:05;11.90;99.90
30336;DHT22;17142;47.990;7.846;2023-05-01T02:55:34;12.00;99.90
30336;DHT22;17142;47.990;7.846;2023-05-01T02:58:00;12.00;99.90
30336;DHT22;17142;47.990;7.846;2023-05-01T03:00:28;12.00;99.90
30336;DHT22;17142;47.990;7.846;2023-05-01T03:02:56;12.00;99.90
30336;DHT22;17142;47.990;7.846;2023-05-01T03:05:22;12.00;99.90
30336;DHT22;17142;47.990;7.846;2023-05-01T03:07:48;11.90;99.90
30336;DHT22;17142;47.990;7.846;2023-05-01T03:10:15;11.90;99.90
30336;DHT22;17142;47.990;7.846;2023-05-01T03:12:41;11.90;99.90
30336;DHT22;17142;47.990;7.846;2023-05-01T03:15:09;11.90;99.90
30336;DHT22;17142;47.990;7.846;2023-05-01T03:17:36;11.90;99.90
30336;DHT22;17142;47.990;7.846;2023-05-01T03:20:02;11.90;99.90
30336;DHT22;17142;47.990;7.846;2023-05-01T03:22:31;11.90;99.90
30336;DHT22;17142;47.990;7.846;2023-05-01T03:24:58;11.90;99.90
30336;DHT22;17142;47.990;7.846;2023-05-01T03:27:26;11.80;99.90
30336;DHT22;17142;47.990;7.846;2023-05-01T03:29:54;11.80;99.90
30336;DHT22;17142;47.990;7.846;2023-05-01T03:32:20;11.80;99.90
30336;DHT22;17142;47.990;7.846;2023-05-01T03:34:45;11.80;99.90
30336;DHT22;17142;47.990;7.846;2023-05-01T03:37:13;11.80;99.90
30336;DHT22;17142;47.990;7.846;2023-05-01T03:39:40;11.80;99.90
30336;DHT22;17142;47.990;7.846;2023-05-01T03:42:05;11.80;99.90
30336;DHT22;17142;47.990;7.846;2023-05-01T03:44:31;11.80;99.90
30336;DHT22;17142;47.990;7.846;2023-05-01T03:46:57;11.70;99.90
30336;DHT22;17142;47.990;7.846;2023-05-01T03:49:23;11.70;99.90
30336;DHT22;17142;47.990;7.846;2023-05-01T03:51:49;11.70;99.90
30336;DHT22;17142;47.990;7.846;2023-05-01T03:54:14;11.60;99.90
30336;DHT22;17142;47.990;7.846;2023-05-01T03:56:40;11.60;99.90
30336;DHT22;17142;47.990;7.846;2023-05-01T03:59:06;11.50;99.90
30336;DHT22;17142;47.990;7.846;2023-05-01T04:01:31;11.50;99.90
30336;DHT22;17142;47.990;7.846;2023-05-01T04:04:00;11.50;99.90
30336;DHT22;17142;47.990;7.846;2023-05-01T04:06:26;11.40;99.90
30336;DHT22;17142;47.990;7.846;2023-05-01T04:08:52;11.40;99.90
30336;DHT22;17142;47.990;7.846;2023-05-01T04:11:18;11.40;99.90
30336;DHT22;17142;47.990;7.846;2023-05-01T04:13:43;11.40;99.90
30336;DHT22;17142;47.990;7.846;2023-05-01T04:16:09;11.40;99.90
30336;DHT22;17142;47.990;7.846;2023-05-01T04:18:38;11.40;99.90
30336;DHT22;17142;47.990;7.846;2023-05-01T04:21:03;11.40;99.90
30336;DHT22;17142;47.990;7.846;2023-05-01T04:23:29;11.40;99.90
30336;DHT22;17142;47.990;7.846;2023-05-01T04:25:55;11.40;99.90
30336;DHT22;17142;47.990;7.846;2023-05-01T04:28:23;11.40;99.90
30336;DHT22;17142;47.990;7.846;2023-05-01T04:30:49;11.40;99.90
30336;DHT22;17142;47.990;7.846;2023-05-01T04:33:17;11.40;99.90
30336;DHT22;17142;47.990;7.846;2023-05-01T04:35:42;11.50;99.90
30336;DHT22;17142;47.990;7.846;2023-05-01T04:38:08;11.50;99.90
30336;DHT22;17142;47.990;7.846;2023-05-01T04:40:36;11.50;99.90
30336;DHT22;17142;47.990;7.846;2023-05-01T04:43:04;11.50;99.90
30336;DHT22;17142;47.990;7.846;2023-05-01T04:45:32;11.40;99.90
30336;DHT22;17142;47.990;7.846;2023-05-01T04:47:58;11.50;99.90
30336;DHT22;17142;47.990;7.846;2023-05-01T04:50:23;11.50;99.90
30336;DHT22;17142;47.990;7.846;2023-05-01T04:52:51;11.50;99.90
30336;DHT22;17142;47.990;7.846;2023-05-01T04:55:17;11.50;99.90
30336;DHT22;17142;47.990;7.846;2023-05-01T04:57:45;11.60;99.90
30336;DHT22;17142;47.990;7.846;2023-05-01T05:00:13;11.60;99.90
30336;DHT22;17142;47.990;7.846;2023-05-01T05:02:39;11.70;99.90
30336;DHT22;17142;47.990;7.846;2023-05-01T05:05:05;11.70;99.90
30336;DHT22;17142;47.990;7.846;2023-05-01T05:07:31;11.70;99.90
30336;DHT22;17142;47.990;7.846;2023-05-01T05:09:56;11.70;99.90
30336;DHT22;17142;47.990;7.846;2023-05-01T05:12:24;11.80;99.90
30336;DHT22;17142;47.990;7.846;2023-05-01T05:14:50;11.70;99.90
30336;DHT22;17142;47.990;7.846;2023-05-01T05:17:18;11.80;99.90
30336;DHT22;17142;47.990;7.846;2023-05-01T05:19:46;11.80;99.90
30336;DHT22;17142;47.990;7.846;2023-05-01T05:22:14;11.90;99.90
30336;DHT22;17142;47.990;7.846;2023-05-01T05:24:40;11.90;99.90
30336;DHT22;17142;47.990;7.846;2023-05-01T05:27:05;11.90;99.90
30336;DHT22;17142;47.990;7.846;2023-05-01T05:29:34;11.90;99.90
30336;DHT22;17142;47.990;7.846;2023-05-01T05:32:00;11.90;99.90
30336;DHT22;17142;47.990;7.846;2023-05-01T05:34:25;11.90;99.90
30336;DHT22;17142;47.990;7.846;2023-05-01T05:36:51;11.90;99.90
30336;DHT22;17142;47.990;7.846;2023-05-01T05:39:20;12.00;99.90
30336;DHT22;17142;47.990;7.846;2023-05-01T05:41:46;12.10;99.90
30336;DHT22;17142;47.990;7.846;2023-05-01T05:44:15;12.20;99.90
30336;DHT22;17142;47.990;7.846;2023-05-01T05:46:43;12.20;99.90
30336;DHT22;17142;47.990;7.846;2023-05-01T05:49:09;12.20;99.90
30336;DHT22;17142;47.990;7.846;2023-05-01T05:51:34;12.20;99.90
30336;DHT22;17142;47.990;7.846;2023-05-01T05:54:02;12.30;99.90
30336;DHT22;17142;47.990;7.846;2023-05-01T05:56:28;12.20;99.90
30336;DHT22;17142;47.990;7.846;2023-05-01T05:58:56;12.20;99.90
30336;DHT22;17142;47.990;7.846;2023-05-01T06:01:21;12.20;99.90
30336;DHT22;17142;47.990;7.846;2023-05-01T06:03:47;12.10;99.90
30336;DHT22;17142;47.990;7.846;2023-05-01T06:06:12;12.10;99.90
30336;DHT22;17142;47.990;7.846;2023-05-01T06:08:38;12.10;99.90
30336;DHT22;17142;47.990;7.846;2023-05-01T06:11:04;12.00;99.90
30336;DHT22;17142;47.990;7.846;2023-05-01T06:13:30;12.00;99.90
30336;DHT22;17142;47.990;7.846;2023-05-01T06:15:57;11.90;99.90
30336;DHT22;17142;47.990;7.846;2023-05-01T06:18:25;11.90;99.90
30336;DHT22;17142;47.990;7.846;2023-05-01T06:20:51;11.80;99.90
30336;DHT22;17142;47.990;7.846;2023-05-01T06:23:19;11.70;99.90
30336;DHT22;17142;47.990;7.846;2023-05-01T06:25:47;11.70;99.90
30336;DHT22;17142;47.990;7.846;2023-05-01T06:28:16;11.60;99.90
30336;DHT22;17142;47.990;7.846;2023-05-01T06:30:44;11.60;99.90
30336;DHT22;17142;47.990;7.846;2023-05-01T06:33:09;11.60;99.90
30336;DHT22;17142;47.990;7.846;2023-05-01T06:35:38;11.50;99.90
30336;DHT22;17142;47.990;7.846;2023-05-01T06:38:04;11.50;99.90
30336;DHT22;17142;47.990;7.846;2023-05-01T06:40:29;11.40;99.90
30336;DHT22;17142;47.990;7.846;2023-05-01T06:42:56;11.40;99.90
30336;DHT22;17142;47.990;7.846;2023-05-01T06:45:27;11.40;99.90
30336;DHT22;17142;47.990;7.846;2023-05-01T06:47:52;11.50;99.90
30336;DHT22;17142;47.990;7.846;2023-05-01T06:50:18;11.50;99.90
30336;DHT22;17142;47.990;7.846;2023-05-01T06:52:44;11.60;99.90
30336;DHT22;17142;47.990;7.846;2023-05-01T06:55:09;11.60;99.90
30336;DHT22;17142;47.990;7.846;2023-05-01T06:57:36;11.70;99.90
30336;DHT22;17142;47.990;7.846;2023-05-01T07:00:05;11.80;99.90
30336;DHT22;17142;47.990;7.846;2023-05-01T07:02:31;11.80;99.90
30336;DHT22;17142;47.990;7.846;2023-05-01T07:04:57;11.90;99.90
30336;DHT22;17142;47.990;7.846;2023-05-01T07:07:23;11.90;99.90
30336;DHT22;17142;47.990;7.846;2023-05-01T07:09:48;11.90;99.90
30336;DHT22;17142;47.990;7.846;2023-05-01T07:12:14;11.90;99.90
30336;DHT22;17142;47.990;7.846;2023-05-01T07:14:39;12.00;99.90
30336;DHT22;17142;47.990;7.846;2023-05-01T07:17:06;12.00;99.90
30336;DHT22;17142;47.990;7.846;2023-05-01T07:19:33;12.00;99.90
30336;DHT22;17142;47.990;7.846;2023-05-01T07:21:59;12.10;99.90
30336;DHT22;17142;47.990;7.846;2023-05-01T07:24:25;12.10;99.90
30336;DHT22;17142;47.990;7.846;2023-05-01T07:26:50;12.20;99.90
30336;DHT22;17142;47.990;7.846;2023-05-01T07:29:18;12.20;99.90
30336;DHT22;17142;47.990;7.846;2023-05-01T07:31:45;12.20;99.90
30336;DHT22;17142;47.990;7.846;2023-05-01T07:34:10;12.30;99.90
30336;DHT22;17142;47.990;7.846;2023-05-01T07:36:36;12.30;99.90
30336;DHT22;17142;47.990;7.846;2023-05-01T07:39:02;12.30;99.90
30336;DHT22;17142;47.990;7.846;2023-05-01T07:41:29;12.30;99.90
30336;DHT22;17142;47.990;7.846;2023-05-01T07:43:57;12.30;99.90
30336;DHT22;17142;47.990;7.846;2023-05-01T07:46:23;12.30;99.90
30336;DHT22;17142;47.990;7.846;2023-05-01T07:48:48;12.30;99.90
30336;DHT22;17142;47.990;7.846;2023-05-01T07:51:14;12.30;99.90
30336;DHT22;17142;47.990;7.846;2023-05-01T07:53:40;12.30;99.90
30336;DHT22;17142;47.990;7.846;2023-05-01T07:56:09;12.20;99.90
30336;DHT22;17142;47.990;7.846;2023-05-01T07:58:38;12.20;99.90
30336;DHT22;17142;47.990;7.846;2023-05-01T08:01:05;12.30;99.90
30336;DHT22;17142;47.990;7.846;2023-05-01T08:03:33;12.30;99.90
30336;DHT22;17142;47.990;7.846;2023-05-01T08:05:59;12.40;99.90
30336;DHT22;17142;47.990;7.846;2023-05-01T08:08:27;12.40;99.90
30336;DHT22;17142;47.990;7.846;2023-05-01T08:10:53;12.40;99.90
30336;DHT22;17142;47.990;7.846;2023-05-01T08:13:21;12.40;99.90
30336;DHT22;17142;47.990;7.846;2023-05-01T08:15:47;12.40;99.90
30336;DHT22;17142;47.990;7.846;2023-05-01T08:18:15;12.40;99.90
30336;DHT22;17142;47.990;7.846;2023-05-01T08:20:48;12.30;99.90
30336;DHT22;17142;47.990;7.846;2023-05-01T08:23:15;12.30;99.90
30336;DHT22;17142;47.990;7.846;2023-05-01T08:25:43;12.30;99.90
30336;DHT22;17142;47.990;7.846;2023-05-01T08:28:13;12.30;99.90
30336;DHT22;17142;47.990;7.846;2023-05-01T08:30:39;12.30;99.90
30336;DHT22;17142;47.990;7.846;2023-05-01T08:33:04;12.30;99.90
30336;DHT22;17142;47.990;7.846;2023-05-01T08:35:30;12.30;99.90
30336;DHT22;17142;47.990;7.846;2023-05-01T08:37:56;12.30;99.90
30336;DHT22;17142;47.990;7.846;2023-05-01T08:40:22;12.30;99.90
30336;DHT22;17142;47.990;7.846;2023-05-01T08:42:48;12.30;99.90
30336;DHT22;17142;47.990;7.846;2023-05-01T08:45:15;12.40;99.90
30336;DHT22;17142;47.990;7.846;2023-05-01T08:47:44;12.50;99.90
30336;DHT22;17142;47.990;7.846;2023-05-01T08:50:10;12.60;99.90
30336;DHT22;17142;47.990;7.846;2023-05-01T08:52:41;12.70;99.90
30336;DHT22;17142;47.990;7.846;2023-05-01T08:55:15;13.00;99.90
30336;DHT22;17142;47.990;7.846;2023-05-01T08:57:45;13.30;99.90
30336;DHT22;17142;47.990;7.846;2023-05-01T09:00:19;13.50;99.90
30336;DHT22;17142;47.990;7.846;2023-05-01T09:02:51;13.70;99.90
30336;DHT22;17142;47.990;7.846;2023-05-01T09:05:18;13.90;99.90
30336;DHT22;17142;47.990;7.846;2023-05-01T09:07:44;14.10;99.90
30336;DHT22;17142;47.990;7.846;2023-05-01T09:10:19;14.20;99.90
30336;DHT22;17142;47.990;7.846;2023-05-01T09:12:54;14.50;99.90
30336;DHT22;17142;47.990;7.846;2023-05-01T09:15:21;14.70;99.90
30336;DHT22;17142;47.990;7.846;2023-05-01T09:17:47;15.00;99.90
30336;DHT22;17142;47.990;7.846;2023-05-01T09:20:13;15.40;99.90
30336;DHT22;17142;47.990;7.846;2023-05-01T09:22:39;15.70;99.90
30336;DHT22;17142;47.990;7.846;2023-05-01T09:25:06;15.90;99.90
30336;DHT22;17142;47.990;7.846;2023-05-01T09:27:35;16.10;99.90
30336;DHT22;17142;47.990;7.846;2023-05-01T09:30:02;16.30;99.90
30336;DHT22;17142;47.990;7.846;2023-05-01T09:32:32;16.40;99.90
30336;DHT22;17142;47.990;7.846;2023-05-01T09:35:13;16.40;99.90
30336;DHT22;17142;47.990;7.846;2023-05-01T09:37:39;16.50;99.90
30336;DHT22;17142;47.990;7.846;2023-05-01T09:40:06;16.40;99.90
30336;DHT22;17142;47.990;7.846;2023-05-01T09:42:37;16.50;99.90
30336;DHT22;17142;47.990;7.846;2023-05-01T09:45:05;16.50;99.90
30336;DHT22;17142;47.990;7.846;2023-05-01T09:47:31;16.60;99.90
30336;DHT22;17142;47.990;7.846;2023-05-01T09:50:01;16.50;99.90
30336;DHT22;17142;47.990;7.846;2023-05-01T09:52:28;16.30;99.90
30336;DHT22;17142;47.990;7.846;2023-05-01T09:55:16;16.10;99.90
30336;DHT22;17142;47.990;7.846;2023-05-01T09:57:44;16.00;99.90
30336;DHT22;17142;47.990;7.846;2023-05-01T10:00:11;16.10;99.90
30336;DHT22;17142;47.990;7.846;2023-05-01T10:02:39;16.10;99.90
30336;DHT22;17142;47.990;7.846;2023-05-01T10:05:06;16.30;99.90
30336;DHT22;17142;47.990;7.846;2023-05-01T10:07:32;16.40;99.90
30336;DHT22;17142;47.990;7.846;2023-05-01T10:10:00;16.60;99.90
30336;DHT22;17142;47.990;7.846;2023-05-01T10:12:39;16.70;99.90
30336;DHT22;17142;47.990;7.846;2023-05-01T10:15:05;16.90;99.90
30336;DHT22;17142;47.990;7.846;2023-05-01T10:17:34;17.00;99.90
30336;DHT22;17142;47.990;7.846;2023-05-01T10:20:00;17.30;99.90
30336;DHT22;17142;47.990;7.846;2023-05-01T10:22:26;17.60;99.90
30336;DHT22;17142;47.990;7.846;2023-05-01T10:24:55;17.80;99.90
30336;DHT22;17142;47.990;7.846;2023-05-01T10:27:22;18.00;99.90
30336;DHT22;17142;47.990;7.846;2023-05-01T10:29:51;18.20;99.90
30336;DHT22;17142;47.990;7.846;2023-05-01T10:32:17;18.30;99.90
30336;DHT22;17142;47.990;7.846;2023-05-01T10:34:48;18.30;99.90
30336;DHT22;17142;47.990;7.846;2023-05-01T10:37:23;18.30;99.90
30336;DHT22;17142;47.990;7.846;2023-05-01T10:39:52;18.40;99.90
30336;DHT22;17142;47.990;7.846;2023-05-01T10:42:20;18.40;99.90
30336;DHT22;17142;47.990;7.846;2023-05-01T10:44:46;18.40;99.90
30336;DHT22;17142;47.990;7.846;2023-05-01T10:50:13;18.40;99.90
30336;DHT22;17142;47.990;7.846;2023-05-01T10:53:15;18.40;99.90
30336;DHT22;17142;47.990;7.846;2023-05-01T10:55:47;18.60;99.90
30336;DHT22;17142;47.990;7.846;2023-05-01T11:04:05;18.80;99.90
30336;DHT22;17142;47.990;7.846;2023-05-01T11:06:34;19.10;99.90
30336;DHT22;17142;47.990;7.846;2023-05-01T11:09:01;19.50;99.90
30336;DHT22;17142;47.990;7.846;2023-05-01T11:14:06;20.10;98.40
30336;DHT22;17142;47.990;7.846;2023-05-01T11:21:53;20.80;91.30
30336;DHT22;17142;47.990;7.846;2023-05-01T11:24:31;20.90;88.70
30336;DHT22;17142;47.990;7.846;2023-05-01T11:26:59;20.90;88.20
30336;DHT22;17142;47.990;7.846;2023-05-01T11:29:30;21.10;89.20
30336;DHT22;17142;47.990;7.846;2023-05-01T11:32:01;21.20;85.30
30336;DHT22;17142;47.990;7.846;2023-05-01T11:34:27;21.40;85.90
30336;DHT22;17142;47.990;7.846;2023-05-01T11:37:01;21.60;86.60
30336;DHT22;17142;47.990;7.846;2023-05-01T11:39:27;21.90;86.80
30336;DHT22;17142;47.990;7.846;2023-05-01T11:42:13;22.20;82.50
30336;DHT22;17142;47.990;7.846;2023-05-01T11:44:41;22.40;77.80
30336;DHT22;17142;47.990;7.846;2023-05-01T11:47:07;22.60;76.20
30336;DHT22;17142;47.990;7.846;2023-05-01T11:49:33;22.70;74.30
30336;DHT22;17142;47.990;7.846;2023-05-01T11:51:59;22.60;71.90
30336;DHT22;17142;47.990;7.846;2023-05-01T11:54:25;22.70;71.70
30336;DHT22;17142;47.990;7.846;2023-05-01T11:56:58;22.90;68.90
30336;DHT22;17142;47.990;7.846;2023-05-01T11:59:25;23.00;67.60
30336;DHT22;17142;47.990;7.846;2023-05-01T12:01:52;23.00;67.30
30336;DHT22;17142;47.990;7.846;2023-05-01T12:04:25;22.90;66.70
30336;DHT22;17142;47.990;7.846;2023-05-01T12:06:52;22.70;68.10
30336;DHT22;17142;47.990;7.846;2023-05-01T12:09:22;22.70;68.00
30336;DHT22;17142;47.990;7.846;2023-05-01T12:11:50;22.70;67.70
30336;DHT22;17142;47.990;7.846;2023-05-01T12:14:19;22.80;66.30
30336;DHT22;17142;47.990;7.846;2023-05-01T12:16:46;22.90;65.10
30336;DHT22;17142;47.990;7.846;2023-05-01T12:19:13;23.00;64.80
30336;DHT22;17142;47.990;7.846;2023-05-01T12:21:39;23.00;64.80
30336;DHT22;17142;47.990;7.846;2023-05-01T12:26:34;23.40;62.40
30336;DHT22;17142;47.990;7.846;2023-05-01T12:29:04;23.50;59.50
30336;DHT22;17142;47.990;7.846;2023-05-01T12:31:31;23.50;59.10
30336;DHT22;17142;47.990;7.846;2023-05-01T12:34:06;23.30;56.50
30336;DHT22;17142;47.990;7.846;2023-05-01T12:36:35;23.00;57.10
30336;DHT22;17142;47.990;7.846;2023-05-01T12:39:06;22.80;57.50
30336;DHT22;17142;47.990;7.846;2023-05-01T12:44:18;22.10;58.90
30336;DHT22;17142;47.990;7.846;2023-05-01T12:46:44;21.80;59.60
30336;DHT22;17142;47.990;7.846;2023-05-01T12:49:19;21.60;61.20
30336;DHT22;17142;47.990;7.846;2023-05-01T12:51:46;21.40;62.80
30336;DHT22;17142;47.990;7.846;2023-05-01T12:54:26;21.20;62.20
30336;DHT22;17142;47.990;7.846;2023-05-01T12:56:53;21.20;63.20
30336;DHT22;17142;47.990;7.846;2023-05-01T12:59:28;21.00;63.60
30336;DHT22;17142;47.990;7.846;2023-05-01T13:02:00;21.00;64.30
30336;DHT22;17142;47.990;7.846;2023-05-01T13:04:27;21.00;64.20
30336;DHT22;17142;47.990;7.846;2023-05-01T13:06:55;21.00;64.50
30336;DHT22;17142;47.990;7.846;2023-05-01T13:09:26;21.00;63.40
30336;DHT22;17142;47.990;7.846;2023-05-01T13:14:22;21.10;63.60
30336;DHT22;17142;47.990;7.846;2023-05-01T13:16:48;21.10;63.60
30336;DHT22;17142;47.990;7.846;2023-05-01T13:19:26;21.20;63.30
30336;DHT22;17142;47.990;7.846;2023-05-01T13:21:56;21.10;63.00
30336;DHT22;17142;47.990;7.846;2023-05-01T13:24:41;21.00;62.40
30336;DHT22;17142;47.990;7.846;2023-05-01T13:27:08;20.90;61.40
30336;DHT22;17142;47.990;7.846;2023-05-01T13:29:34;20.80;62.30
30336;DHT22;17142;47.990;7.846;2023-05-01T13:32:03;20.60;62.50
30336;DHT22;17142;47.990;7.846;2023-05-01T13:34:32;20.50;62.50
30336;DHT22;17142;47.990;7.846;2023-05-01T13:36:59;20.40;63.00
30336;DHT22;17142;47.990;7.846;2023-05-01T13:39:25;20.40;62.40
30336;DHT22;17142;47.990;7.846;2023-05-01T13:41:51;20.40;61.10
30336;DHT22;17142;47.990;7.846;2023-05-01T13:44:18;20.50;61.50
30336;DHT22;17142;47.990;7.846;2023-05-01T13:46:44;20.70;59.70
30336;DHT22;17142;47.990;7.846;2023-05-01T13:49:11;20.80;59.40
30336;DHT22;17142;47.990;7.846;2023-05-01T13:51:40;20.90;59.50
30336;DHT22;17142;47.990;7.846;2023-05-01T13:54:08;20.80;60.90
30336;DHT22;17142;47.990;7.846;2023-05-01T13:56:38;20.70;62.80
30336;DHT22;17142;47.990;7.846;2023-05-01T13:59:05;20.80;64.20
30336;DHT22;17142;47.990;7.846;2023-05-01T14:01:30;21.00;63.70
30336;DHT22;17142;47.990;7.846;2023-05-01T14:04:08;21.20;63.20
30336;DHT22;17142;47.990;7.846;2023-05-01T14:06:35;21.40;62.00
30336;DHT22;17142;47.990;7.846;2023-05-01T14:09:05;21.70;62.60
30336;DHT22;17142;47.990;7.846;2023-05-01T14:11:31;21.80;60.30
30336;DHT22;17142;47.990;7.846;2023-05-01T14:13:58;21.80;60.10
30336;DHT22;17142;47.990;7.846;2023-05-01T14:16:27;21.70;60.20
30336;DHT22;17142;47.990;7.846;2023-05-01T14:18:55;21.50;60.10
30336;DHT22;17142;47.990;7.846;2023-05-01T14:21:23;21.40;60.30
30336;DHT22;17142;47.990;7.846;2023-05-01T14:23:52;21.40;60.80
30336;DHT22;17142;47.990;7.846;2023-05-01T14:26:21;21.50;60.90
30336;DHT22;17142;47.990;7.846;2023-05-01T14:28:48;21.70;60.30
30336;DHT22;17142;47.990;7.846;2023-05-01T14:31:27;21.90;60.40
30336;DHT22;17142;47.990;7.846;2023-05-01T14:34:04;22.00;59.90
30336;DHT22;17142;47.990;7.846;2023-05-01T14:36:31;22.00;59.00
30336;DHT22;17142;47.990;7.846;2023-05-01T14:38:59;22.00;59.50
30336;DHT22;17142;47.990;7.846;2023-05-01T14:41:25;21.90;58.50
30336;DHT22;17142;47.990;7.846;2023-05-01T14:43:51;21.70;59.70
30336;DHT22;17142;47.990;7.846;2023-05-01T14:46:32;21.60;59.30
30336;DHT22;17142;47.990;7.846;2023-05-01T14:49:00;21.50;59.50
30336;DHT22;17142;47.990;7.846;2023-05-01T14:51:26;21.40;60.10
30336;DHT22;17142;47.990;7.846;2023-05-01T14:53:53;21.50;60.30
30336;DHT22;17142;47.990;7.846;2023-05-01T14:56:21;21.70;59.50
30336;DHT22;17142;47.990;7.846;2023-05-01T14:58:48;21.90;59.90
30336;DHT22;17142;47.990;7.846;2023-05-01T15:01:14;22.10;59.80
30336;DHT22;17142;47.990;7.846;2023-05-01T15:03:42;22.30;58.80
30336;DHT22;17142;47.990;7.846;2023-05-01T15:06:10;22.20;58.60
30336;DHT22;17142;47.990;7.846;2023-05-01T15:08:36;22.10;57.70
30336;DHT22;17142;47.990;7.846;2023-05-01T15:11:06;21.90;58.20
30336;DHT22;17142;47.990;7.846;2023-05-01T15:13:32;21.80;58.50
30336;DHT22;17142;47.990;7.846;2023-05-01T15:16:03;21.60;57.80
30336;DHT22;17142;47.990;7.846;2023-05-01T15:18:29;21.20;58.60
30336;DHT22;17142;47.990;7.846;2023-05-01T15:20:54;20.70;59.30
30336;DHT22;17142;47.990;7.846;2023-05-01T15:23:23;20.40;60.10
30336;DHT22;17142;47.990;7.846;2023-05-01T15:25:52;20.00;60.10
30336;DHT22;17142;47.990;7.846;2023-05-01T15:28:17;19.80;64.20
30336;DHT22;17142;47.990;7.846;2023-05-01T15:30:44;19.60;66.20
30336;DHT22;17142;47.990;7.846;2023-05-01T15:33:14;19.30;67.20
30336;DHT22;17142;47.990;7.846;2023-05-01T15:35:39;19.00;65.50
30336;DHT22;17142;47.990;7.846;2023-05-01T15:38:07;18.90;64.60
30336;DHT22;17142;47.990;7.846;2023-05-01T15:40:35;18.80;63.40
30336;DHT22;17142;47.990;7.846;2023-05-01T15:43:03;18.70;61.80
30336;DHT22;17142;47.990;7.846;2023-05-01T15:45:30;18.80;62.70
30336;DHT22;17142;47.990;7.846;2023-05-01T15:47:55;18.90;61.80
30336;DHT22;17142;47.990;7.846;2023-05-01T15:50:21;19.00;61.80
30336;DHT22;17142;47.990;7.846;2023-05-01T15:52:48;19.20;61.00
30336;DHT22;17142;47.990;7.846;2023-05-01T15:55:14;19.30;60.00
30336;DHT22;17142;47.990;7.846;2023-05-01T15:57:40;19.50;60.20
30336;DHT22;17142;47.990;7.846;2023-05-01T16:00:09;19.70;59.70
30336;DHT22;17142;47.990;7.846;2023-05-01T16:02:35;19.80;58.50
30336;DHT22;17142;47.990;7.846;2023-05-01T16:05:00;19.70;58.90
30336;DHT22;17142;47.990;7.846;2023-05-01T16:07:53;19.50;59.20
30336;DHT22;17142;47.990;7.846;2023-05-01T16:10:34;19.30;59.20
30336;DHT22;17142;47.990;7.846;2023-05-01T16:13:07;19.30;59.40
30336;DHT22;17142;47.990;7.846;2023-05-01T16:15:36;19.30;59.10
30336;DHT22;17142;47.990;7.846;2023-05-01T16:18:34;19.10;58.70